Capitol Logistics 12


PANC
Ted Stevens Anchorage International Airport
Anchorage, Alaska, US
VHHH
Chek Lap Kok International
Hong Kong, , HK

Route Details

Aircraft Information
Primary: Boeing 747-400BCF
Backup: Boeing 777-200LRF
Route Data
Distance: 4414nm
Sched. Duration: 11h 15m
Avg. Duration: 10h 42m (-73m)
Times Flown: 8
Recm'd Route: NODLE R220 NANZA R220 NANAC R220 IXE Y88 NAKTU Y12 KEC Y24 KOSHI A1 BULAN A1 ELATO V522 ABBEY
Planned Altitude: 32,000ft
Origin Wx: PANC 252053Z 02004KT 10SM VCFG FEW002 M06/M08 A2975 RMK AO2 SLP077 VCFG E-S I1002 I3003 T10561078 55000
Dest. Wx: VHHH 252100Z VRB03KT 070V130 9000 NSC 18/15 Q1017 NOSIG
Notes:

Financial History
Total Freight: 610,520lbs
Average Load: 76,315lbs/flt
Fuel Used: 1,390,000lbs
Avg. Fuel Used: 173,750lbs/flt
Fuel Expense: $1,719,898
Avg. Fuel Expense: $214,987
Avg. Fuel Cost: $1.24/lbs
Total Gross Income: $1,222,543
Pilot Pay: $1,862
Total Expenses: $132,451
Total Revenue: $-651,401
Average Revenue: $152,817.85